Last 30 Days

Squaw-Belmont 8000'

Daily Data | America/Los_Angeles
as of 12/15/19 10:29 AM PST
Date Daily Max Temp (°F) Max Temp Time Daily Min Temp (°F) Min Temp Time Daily Rain (In) Seasonal Rainfall (In) New Snow (in) SnowDepth (in) Wind Spd (mph) Daily Max Wind (mph) Max Wind Time Max Wind Dir (°) Max RH (%) Min RH (%) Wet Bulb (°F) WetB Hrs <28F (hrs) Bat Volt Min Day (V)
12/14/19 27.3 0056 18.5 2314 0.57 73.28 4.5 71.5 11.1 34.3 0025 S | 190 100 97 21.6 24.0 13.07
12/13/19 32.9 0227 27.1 2351 1.79 72.71 5.9 67.6 12.2 36.8 2201 SW | 225 100 89 29.9 1.0 13.07
12/12/19 35.5 0549 30.1 1740 0.79 70.92 0.5 59.5 14.0 43.0 0915 S | 177 100 88 32.6 0.0 13.04
12/11/19 32.7 1254 25.6 0055 0.65 70.13 2.8 62.6 13.4 37.4 1857 WSW | 251 100 95 29.9 2.8 13.01
12/10/19 37.9 1137 25.5 0122 0.00 69.48 0.4 59.9 7.3 34.8 2331 SSW | 211 97 55 27.7 14.5 12.99
12/9/19 30.4 1330 20.0 0517 0.00 69.48 0.4 61.0 1.8 11.0 0919 NW | 320 100 88 25.0 19.1 13.02
12/8/19 31.5 1033 24.7 1929 1.33 69.48 0.4 61.4 5.7 33.1 0131 WSW | 240 100 100 27.5 16.2 13.01
12/7/19 31.7 0523 26.7 1834 2.32 68.15 7.1 58.1 16.1 45.7 0811 SSE | 168 100 100 30.0 3.0 13.05
12/6/19 36.1 1134 28.2 2132 0.13 65.83 2.8 7.5 15.8 44.1 2100 SSW | 213 100 65 29.2 4.8 13.00
12/5/19 34.1 1139 25.4 0713 0.07 65.70 0.3 5.4 8.0 26.3 0030 SSW | 210 100 69 29.5 4.8 13.00
12/4/19 32.6 1152 28.3 0726 0.32 65.63 1.7 43.8 7.6 32.6 2206 SSE | 164 100 90 30.2 0.0 13.03
12/3/19 32.7 1317 28.8 0145 0.01 65.31 0.3 43.4 1.9 12.9 2324 SSW | 213 100 100 31.1 0.0 13.00
12/2/19 31.9 1345 29.2 2359 1.85 65.30 0.0 47.4 6.9 28.3 0022 SSE | 167 100 100 31.0 0.0 13.03
12/1/19 31.2 1226 28.8 2300 2.86 63.45 11.0 43.3 10.6 27.9 1105 ESE | 123 100 100 30.0 0.0 13.07
11/30/19 30.6 2124 8.0 0155 0.64 60.59 4.1 29.0 5.9 30.8 2049 SE | 134 100 93 18.9 18.2 13.11
11/29/19 15.8 1002 9.2 2202 0.33 59.95 3.0 29.6 0.0 0.0 0018 N | 0 96 93 13.3 24.0 13.13
11/28/19 21.0 1136 10.5 0729 0.46 59.62 3.7 26.3 2.7 27.2 0118 SSW | 194 96 93 14.4 24.0 13.08
11/27/19 18.7 1217 12.4 1931 0.79 59.16 2.9 16.0 9.1 34.2 0141 SW | 223 96 94 15.1 24.0 13.13
11/26/19 22.4 1042 11.7 0509 0.08 58.37 12.3 6.8 11.4 45.2 1241 SW | 233 97 32 15.3 24.0 13.17
11/25/19 - 0001 - 0001 0.00 58.29 0.3 0.3 5.6 33.6 0507 W | 268 82 47 15.5 10.3 13.17
11/24/19 - 0001 - 0001 0.00 58.29 - - 3.9 19.0 2334 WSW | 245 70 70 - 0.0 13.28
11/23/19 35.2 1243 25.7 0452 0.00 58.29 - - 3.0 15.4 0302 E | 82 70 70 - 8.9 13.44
11/22/19 36.3 1208 26.8 0612 0.00 58.29 0.0 75.0 2.5 14.4 2129 ENE | 74 100 68 29.7 3.6 13.04
11/21/19 31.9 1502 23.7 0513 0.00 58.29 0.0 75.0 2.7 14.0 0022 ESE | 115 100 100 28.2 9.5 13.06
11/20/19 26.8 0003 23.4 1846 0.00 58.29 0.0 75.0 9.5 35.4 0739 ENE | 67 100 99 24.4 24.0 13.19
11/19/19 43.0 0209 26.8 2333 0.01 58.29 0.0 0.3 8.7 34.6 0301 WSW | 246 100 37 32.0 5.6 13.01
11/18/19 58.4 1226 42.3 2359 0.00 58.28 0.0 0.0 8.3 24.9 2331 SW | 221 44 21 37.6 0.0 12.94
11/17/19 58.5 1252 36.2 0009 0.00 58.28 0.0 0.2 1.8 8.6 0259 ESE | 123 59 21 35.6 0.0 12.94
11/16/19 50.3 1401 33.2 0443 0.00 58.28 0.0 0.1 2.2 10.2 0946 SE | 133 58 22 31.8 0.8 12.94
11/15/19 46.6 1136 35.9 0324 0.00 58.28 0.0 0.0 5.6 25.8 0805 SSW | 201 62 34 32.2 0.0 12.96
Max 58.5 - 42.3 - 2.86 - 12.3 75.0 16.1 45.7 - - 100 100 37.6 24.0 13.44
Avg - - - - - - 2.3 36.6 7.2 - - - - - 26.8 - -
Min 15.8 - 8.0 - 0.00 - 0.0 0.0 0.0 0.0 - - 44 21 13.3 0.0 12.94